sensor_id;sensor_type;location;lat;lon;timestamp;P1;durP1;ratioP1;P2;durP2;ratioP2
20185;SDS011;10252;48.792;8.582;2023-08-24T00:03:52;8.70;;;7.90;;
20185;SDS011;10252;48.792;8.582;2023-08-24T00:08:53;8.40;;;7.57;;
20185;SDS011;10252;48.792;8.582;2023-08-24T00:13:54;12.18;;;8.75;;
20185;SDS011;10252;48.792;8.582;2023-08-24T00:18:55;11.35;;;9.05;;
20185;SDS011;10252;48.792;8.582;2023-08-24T00:23:57;9.98;;;8.65;;
20185;SDS011;10252;48.792;8.582;2023-08-24T00:28:59;9.63;;;8.52;;
20185;SDS011;10252;48.792;8.582;2023-08-24T00:34:01;10.80;;;8.45;;
20185;SDS011;10252;48.792;8.582;2023-08-24T00:39:02;9.02;;;8.20;;
20185;SDS011;10252;48.792;8.582;2023-08-24T00:44:04;11.35;;;8.63;;
20185;SDS011;10252;48.792;8.582;2023-08-24T00:49:07;9.45;;;8.45;;
20185;SDS011;10252;48.792;8.582;2023-08-24T00:54:08;9.23;;;8.25;;
20185;SDS011;10252;48.792;8.582;2023-08-24T00:59:10;9.80;;;8.05;;
20185;SDS011;10252;48.792;8.582;2023-08-24T01:04:11;14.32;;;8.70;;
20185;SDS011;10252;48.792;8.582;2023-08-24T01:09:12;11.43;;;8.88;;
20185;SDS011;10252;48.792;8.582;2023-08-24T01:14:25;10.85;;;8.52;;
20185;SDS011;10252;48.792;8.582;2023-08-24T01:24:44;9.23;;;8.32;;
20185;SDS011;10252;48.792;8.582;2023-08-24T01:29:48;11.55;;;8.55;;
20185;SDS011;10252;48.792;8.582;2023-08-24T01:34:51;11.68;;;8.65;;
20185;SDS011;10252;48.792;8.582;2023-08-24T01:39:56;11.43;;;9.00;;
20185;SDS011;10252;48.792;8.582;2023-08-24T01:44:58;8.88;;;8.07;;
20185;SDS011;10252;48.792;8.582;2023-08-24T01:50:01;12.27;;;8.27;;
20185;SDS011;10252;48.792;8.582;2023-08-24T01:55:03;9.82;;;8.38;;
20185;SDS011;10252;48.792;8.582;2023-08-24T02:00:05;12.48;;;9.10;;
20185;SDS011;10252;48.792;8.582;2023-08-24T02:05:13;10.50;;;9.20;;
20185;SDS011;10252;48.792;8.582;2023-08-24T02:10:15;9.25;;;8.35;;
20185;SDS011;10252;48.792;8.582;2023-08-24T02:15:16;9.30;;;8.30;;
20185;SDS011;10252;48.792;8.582;2023-08-24T02:20:17;14.90;;;9.98;;
20185;SDS011;10252;48.792;8.582;2023-08-24T02:25:19;9.45;;;8.45;;
20185;SDS011;10252;48.792;8.582;2023-08-24T02:30:20;10.50;;;8.40;;
20185;SDS011;10252;48.792;8.582;2023-08-24T02:35:21;9.80;;;8.80;;
20185;SDS011;10252;48.792;8.582;2023-08-24T02:40:23;9.05;;;8.00;;
20185;SDS011;10252;48.792;8.582;2023-08-24T02:45:24;12.63;;;9.75;;
20185;SDS011;10252;48.792;8.582;2023-08-24T02:50:26;10.57;;;8.13;;
20185;SDS011;10252;48.792;8.582;2023-08-24T02:55:28;11.95;;;8.55;;
20185;SDS011;10252;48.792;8.582;2023-08-24T03:00:29;9.98;;;8.98;;
20185;SDS011;10252;48.792;8.582;2023-08-24T03:05:30;8.88;;;7.97;;
20185;SDS011;10252;48.792;8.582;2023-08-24T03:10:36;9.57;;;8.68;;
20185;SDS011;10252;48.792;8.582;2023-08-24T03:15:37;9.55;;;8.55;;
20185;SDS011;10252;48.792;8.582;2023-08-24T03:20:38;9.38;;;8.38;;
20185;SDS011;10252;48.792;8.582;2023-08-24T03:25:41;12.05;;;9.05;;
20185;SDS011;10252;48.792;8.582;2023-08-24T03:30:46;9.65;;;8.55;;
20185;SDS011;10252;48.792;8.582;2023-08-24T03:35:48;10.63;;;8.93;;
20185;SDS011;10252;48.792;8.582;2023-08-24T03:40:49;8.68;;;7.80;;
20185;SDS011;10252;48.792;8.582;2023-08-24T03:45:52;9.50;;;7.75;;
20185;SDS011;10252;48.792;8.582;2023-08-24T03:50:54;9.32;;;8.40;;
20185;SDS011;10252;48.792;8.582;2023-08-24T03:55:55;10.10;;;8.32;;
20185;SDS011;10252;48.792;8.582;2023-08-24T04:00:57;10.23;;;8.35;;
20185;SDS011;10252;48.792;8.582;2023-08-24T04:05:59;9.40;;;8.35;;
20185;SDS011;10252;48.792;8.582;2023-08-24T04:11:00;8.27;;;7.50;;
20185;SDS011;10252;48.792;8.582;2023-08-24T04:16:01;11.80;;;7.90;;
20185;SDS011;10252;48.792;8.582;2023-08-24T04:21:03;11.60;;;8.05;;
20185;SDS011;10252;48.792;8.582;2023-08-24T04:26:05;12.20;;;7.63;;
20185;SDS011;10252;48.792;8.582;2023-08-24T04:31:07;9.25;;;8.10;;
20185;SDS011;10252;48.792;8.582;2023-08-24T04:36:08;9.93;;;8.85;;
20185;SDS011;10252;48.792;8.582;2023-08-24T04:41:09;8.55;;;7.70;;
20185;SDS011;10252;48.792;8.582;2023-08-24T04:46:12;9.48;;;8.18;;
20185;SDS011;10252;48.792;8.582;2023-08-24T04:51:13;9.85;;;8.85;;
20185;SDS011;10252;48.792;8.582;2023-08-24T04:56:14;9.65;;;8.63;;
20185;SDS011;10252;48.792;8.582;2023-08-24T05:01:16;9.48;;;8.27;;
20185;SDS011;10252;48.792;8.582;2023-08-24T05:06:17;10.75;;;8.82;;
20185;SDS011;10252;48.792;8.582;2023-08-24T05:11:19;9.65;;;8.52;;
20185;SDS011;10252;48.792;8.582;2023-08-24T05:16:21;10.38;;;8.02;;
20185;SDS011;10252;48.792;8.582;2023-08-24T05:21:22;9.90;;;8.32;;
20185;SDS011;10252;48.792;8.582;2023-08-24T05:26:24;9.25;;;8.35;;
20185;SDS011;10252;48.792;8.582;2023-08-24T05:31:25;9.05;;;8.05;;
20185;SDS011;10252;48.792;8.582;2023-08-24T05:36:26;8.82;;;8.02;;
20185;SDS011;10252;48.792;8.582;2023-08-24T05:41:27;8.57;;;7.68;;
20185;SDS011;10252;48.792;8.582;2023-08-24T05:46:30;12.30;;;7.32;;
20185;SDS011;10252;48.792;8.582;2023-08-24T05:51:31;9.77;;;7.35;;
20185;SDS011;10252;48.792;8.582;2023-08-24T05:56:32;8.18;;;7.40;;
20185;SDS011;10252;48.792;8.582;2023-08-24T06:01:34;10.77;;;7.63;;
20185;SDS011;10252;48.792;8.582;2023-08-24T06:06:38;7.97;;;7.28;;
20185;SDS011;10252;48.792;8.582;2023-08-24T06:11:39;8.68;;;7.68;;
20185;SDS011;10252;48.792;8.582;2023-08-24T06:16:41;8.35;;;7.40;;
20185;SDS011;10252;48.792;8.582;2023-08-24T06:21:43;7.32;;;6.68;;
20185;SDS011;10252;48.792;8.582;2023-08-24T06:26:45;8.20;;;7.47;;
20185;SDS011;10252;48.792;8.582;2023-08-24T06:31:46;8.05;;;7.28;;
20185;SDS011;10252;48.792;8.582;2023-08-24T06:36:50;8.98;;;7.13;;
20185;SDS011;10252;48.792;8.582;2023-08-24T06:41:52;9.30;;;7.50;;
20185;SDS011;10252;48.792;8.582;2023-08-24T06:46:59;8.60;;;6.93;;
20185;SDS011;10252;48.792;8.582;2023-08-24T06:52:01;9.88;;;7.03;;
20185;SDS011;10252;48.792;8.582;2023-08-24T06:57:02;8.48;;;6.95;;
20185;SDS011;10252;48.792;8.582;2023-08-24T07:02:04;10.38;;;7.45;;
20185;SDS011;10252;48.792;8.582;2023-08-24T07:07:05;7.47;;;6.25;;
20185;SDS011;10252;48.792;8.582;2023-08-24T07:12:06;7.38;;;6.68;;
20185;SDS011;10252;48.792;8.582;2023-08-24T07:17:10;7.30;;;6.00;;
20185;SDS011;10252;48.792;8.582;2023-08-24T07:22:11;6.07;;;5.47;;
20185;SDS011;10252;48.792;8.582;2023-08-24T07:27:13;8.77;;;5.45;;
20185;SDS011;10252;48.792;8.582;2023-08-24T07:32:14;5.15;;;4.40;;
20185;SDS011;10252;48.792;8.582;2023-08-24T07:37:16;4.70;;;4.28;;
20185;SDS011;10252;48.792;8.582;2023-08-24T07:42:20;6.45;;;5.15;;
20185;SDS011;10252;48.792;8.582;2023-08-24T07:47:22;5.70;;;5.18;;
20185;SDS011;10252;48.792;8.582;2023-08-24T07:52:24;5.90;;;4.72;;
20185;SDS011;10252;48.792;8.582;2023-08-24T07:57:27;6.50;;;4.47;;
20185;SDS011;10252;48.792;8.582;2023-08-24T08:02:28;5.25;;;4.07;;
20185;SDS011;10252;48.792;8.582;2023-08-24T08:07:30;5.70;;;5.20;;
20185;SDS011;10252;48.792;8.582;2023-08-24T08:12:31;8.27;;;4.30;;
20185;SDS011;10252;48.792;8.582;2023-08-24T08:17:32;5.20;;;4.60;;
20185;SDS011;10252;48.792;8.582;2023-08-24T08:22:35;5.93;;;4.25;;
20185;SDS011;10252;48.792;8.582;2023-08-24T08:27:38;6.20;;;4.55;;
20185;SDS011;10252;48.792;8.582;2023-08-24T08:32:40;4.60;;;4.20;;
20185;SDS011;10252;48.792;8.582;2023-08-24T08:37:41;5.75;;;4.45;;
20185;SDS011;10252;48.792;8.582;2023-08-24T08:42:42;5.80;;;4.18;;
20185;SDS011;10252;48.792;8.582;2023-08-24T08:47:44;4.43;;;4.03;;
20185;SDS011;10252;48.792;8.582;2023-08-24T08:52:45;4.80;;;4.40;;
20185;SDS011;10252;48.792;8.582;2023-08-24T08:57:47;4.57;;;4.18;;
20185;SDS011;10252;48.792;8.582;2023-08-24T09:02:49;4.88;;;4.47;;
20185;SDS011;10252;48.792;8.582;2023-08-24T09:07:55;5.10;;;4.55;;
20185;SDS011;10252;48.792;8.582;2023-08-24T09:12:59;5.07;;;4.60;;
20185;SDS011;10252;48.792;8.582;2023-08-24T09:18:00;8.73;;;4.70;;
20185;SDS011;10252;48.792;8.582;2023-08-24T09:23:02;4.22;;;3.92;;
20185;SDS011;10252;48.792;8.582;2023-08-24T09:28:03;5.68;;;5.05;;
20185;SDS011;10252;48.792;8.582;2023-08-24T09:33:11;7.13;;;4.50;;
20185;SDS011;10252;48.792;8.582;2023-08-24T09:38:18;6.30;;;4.53;;
20185;SDS011;10252;48.792;8.582;2023-08-24T09:43:22;5.13;;;4.72;;
20185;SDS011;10252;48.792;8.582;2023-08-24T09:48:23;6.40;;;5.82;;
20185;SDS011;10252;48.792;8.582;2023-08-24T09:53:24;5.53;;;5.03;;
20185;SDS011;10252;48.792;8.582;2023-08-24T09:58:26;7.65;;;5.60;;
20185;SDS011;10252;48.792;8.582;2023-08-24T10:03:27;5.30;;;4.80;;
20185;SDS011;10252;48.792;8.582;2023-08-24T10:08:32;5.50;;;5.00;;
20185;SDS011;10252;48.792;8.582;2023-08-24T10:13:43;5.53;;;5.00;;
20185;SDS011;10252;48.792;8.582;2023-08-24T10:18:49;8.18;;;5.40;;
20185;SDS011;10252;48.792;8.582;2023-08-24T10:23:52;7.60;;;5.32;;
20185;SDS011;10252;48.792;8.582;2023-08-24T10:28:54;6.97;;;5.50;;
20185;SDS011;10252;48.792;8.582;2023-08-24T10:33:56;7.63;;;6.13;;
20185;SDS011;10252;48.792;8.582;2023-08-24T10:38:57;6.63;;;5.60;;
20185;SDS011;10252;48.792;8.582;2023-08-24T10:44:05;6.90;;;5.72;;
20185;SDS011;10252;48.792;8.582;2023-08-24T10:49:07;6.28;;;5.60;;
20185;SDS011;10252;48.792;8.582;2023-08-24T10:54:08;5.95;;;5.35;;
20185;SDS011;10252;48.792;8.582;2023-08-24T10:59:14;7.32;;;5.30;;
20185;SDS011;10252;48.792;8.582;2023-08-24T11:04:16;8.98;;;5.50;;
20185;SDS011;10252;48.792;8.582;2023-08-24T11:09:17;7.63;;;5.68;;
20185;SDS011;10252;48.792;8.582;2023-08-24T11:14:19;7.00;;;6.03;;
20185;SDS011;10252;48.792;8.582;2023-08-24T11:19:26;7.30;;;5.93;;
20185;SDS011;10252;48.792;8.582;2023-08-24T11:24:28;6.40;;;5.75;;
20185;SDS011;10252;48.792;8.582;2023-08-24T11:29:29;7.25;;;5.80;;
20185;SDS011;10252;48.792;8.582;2023-08-24T11:34:30;7.72;;;6.38;;
20185;SDS011;10252;48.792;8.582;2023-08-24T11:39:32;6.63;;;5.93;;
20185;SDS011;10252;48.792;8.582;2023-08-24T11:49:47;9.13;;;5.55;;
20185;SDS011;10252;48.792;8.582;2023-08-24T11:54:51;6.07;;;5.38;;
20185;SDS011;10252;48.792;8.582;2023-08-24T11:59:52;7.43;;;5.70;;
20185;SDS011;10252;48.792;8.582;2023-08-24T12:04:53;10.10;;;5.47;;
20185;SDS011;10252;48.792;8.582;2023-08-24T12:09:54;10.95;;;5.45;;
20185;SDS011;10252;48.792;8.582;2023-08-24T12:14:56;6.13;;;5.53;;
20185;SDS011;10252;48.792;8.582;2023-08-24T12:19:59;9.15;;;5.10;;
20185;SDS011;10252;48.792;8.582;2023-08-24T12:25:01;6.88;;;5.78;;
20185;SDS011;10252;48.792;8.582;2023-08-24T12:30:02;8.88;;;5.25;;
20185;SDS011;10252;48.792;8.582;2023-08-24T12:35:04;10.70;;;5.70;;
20185;SDS011;10252;48.792;8.582;2023-08-24T12:40:06;8.65;;;5.80;;
20185;SDS011;10252;48.792;8.582;2023-08-24T12:45:08;11.27;;;5.60;;
20185;SDS011;10252;48.792;8.582;2023-08-24T12:50:09;7.47;;;5.28;;
20185;SDS011;10252;48.792;8.582;2023-08-24T12:55:11;8.07;;;5.57;;
20185;SDS011;10252;48.792;8.582;2023-08-24T13:00:13;9.32;;;5.88;;
20185;SDS011;10252;48.792;8.582;2023-08-24T13:05:15;9.63;;;5.20;;
20185;SDS011;10252;48.792;8.582;2023-08-24T13:10:16;9.00;;;6.10;;
20185;SDS011;10252;48.792;8.582;2023-08-24T13:15:17;13.25;;;6.35;;
20185;SDS011;10252;48.792;8.582;2023-08-24T13:20:19;6.22;;;5.63;;
20185;SDS011;10252;48.792;8.582;2023-08-24T13:25:20;7.75;;;5.68;;
20185;SDS011;10252;48.792;8.582;2023-08-24T13:30:21;9.75;;;5.38;;
20185;SDS011;10252;48.792;8.582;2023-08-24T13:35:22;8.55;;;5.57;;
20185;SDS011;10252;48.792;8.582;2023-08-24T13:40:24;7.80;;;5.78;;
20185;SDS011;10252;48.792;8.582;2023-08-24T13:45:25;9.30;;;6.68;;
20185;SDS011;10252;48.792;8.582;2023-08-24T13:50:26;8.70;;;5.80;;
20185;SDS011;10252;48.792;8.582;2023-08-24T13:55:28;11.45;;;6.55;;
20185;SDS011;10252;48.792;8.582;2023-08-24T14:00:30;6.30;;;5.40;;
20185;SDS011;10252;48.792;8.582;2023-08-24T14:05:31;7.82;;;7.03;;
20185;SDS011;10252;48.792;8.582;2023-08-24T14:10:33;18.02;;;7.55;;
20185;SDS011;10252;48.792;8.582;2023-08-24T14:15:34;10.38;;;7.90;;
20185;SDS011;10252;48.792;8.582;2023-08-24T14:20:35;10.23;;;8.43;;
20185;SDS011;10252;48.792;8.582;2023-08-24T14:25:37;9.23;;;8.25;;
20185;SDS011;10252;48.792;8.582;2023-08-24T14:30:38;12.35;;;9.52;;
20185;SDS011;10252;48.792;8.582;2023-08-24T14:35:40;16.23;;;10.40;;
20185;SDS011;10252;48.792;8.582;2023-08-24T14:40:42;19.27;;;12.45;;
20185;SDS011;10252;48.792;8.582;2023-08-24T14:45:43;15.80;;;11.00;;
20185;SDS011;10252;48.792;8.582;2023-08-24T14:50:44;12.52;;;10.75;;
20185;SDS011;10252;48.792;8.582;2023-08-24T14:55:46;14.38;;;12.35;;
20185;SDS011;10252;48.792;8.582;2023-08-24T15:00:47;16.58;;;12.07;;
20185;SDS011;10252;48.792;8.582;2023-08-24T15:05:58;13.65;;;12.30;;
20185;SDS011;10252;48.792;8.582;2023-08-24T15:11:00;12.25;;;10.95;;
20185;SDS011;10252;48.792;8.582;2023-08-24T15:16:02;19.63;;;11.65;;
20185;SDS011;10252;48.792;8.582;2023-08-24T15:21:03;15.32;;;11.02;;
20185;SDS011;10252;48.792;8.582;2023-08-24T15:26:04;14.63;;;10.15;;
20185;SDS011;10252;48.792;8.582;2023-08-24T15:31:05;14.70;;;10.90;;
20185;SDS011;10252;48.792;8.582;2023-08-24T15:36:07;13.05;;;11.20;;
20185;SDS011;10252;48.792;8.582;2023-08-24T15:41:08;12.27;;;11.07;;
20185;SDS011;10252;48.792;8.582;2023-08-24T15:46:10;12.52;;;11.18;;
20185;SDS011;10252;48.792;8.582;2023-08-24T15:51:11;15.18;;;13.60;;
20185;SDS011;10252;48.792;8.582;2023-08-24T15:56:12;12.10;;;11.00;;
20185;SDS011;10252;48.792;8.582;2023-08-24T16:01:13;15.68;;;12.18;;
20185;SDS011;10252;48.792;8.582;2023-08-24T16:06:15;13.15;;;11.38;;
20185;SDS011;10252;48.792;8.582;2023-08-24T16:11:16;13.85;;;11.90;;
20185;SDS011;10252;48.792;8.582;2023-08-24T16:16:17;16.13;;;12.65;;
20185;SDS011;10252;48.792;8.582;2023-08-24T16:21:18;12.40;;;11.10;;
20185;SDS011;10252;48.792;8.582;2023-08-24T16:26:20;10.38;;;9.38;;
20185;SDS011;10252;48.792;8.582;2023-08-24T16:31:22;17.63;;;9.85;;
20185;SDS011;10252;48.792;8.582;2023-08-24T16:36:23;12.35;;;10.88;;
20185;SDS011;10252;48.792;8.582;2023-08-24T16:41:24;12.18;;;10.55;;
20185;SDS011;10252;48.792;8.582;2023-08-24T16:46:25;11.68;;;10.57;;
20185;SDS011;10252;48.792;8.582;2023-08-24T16:51:27;12.20;;;9.77;;
20185;SDS011;10252;48.792;8.582;2023-08-24T16:56:28;11.35;;;10.45;;
20185;SDS011;10252;48.792;8.582;2023-08-24T17:01:29;12.82;;;10.30;;
20185;SDS011;10252;48.792;8.582;2023-08-24T17:06:30;10.75;;;9.65;;
20185;SDS011;10252;48.792;8.582;2023-08-24T17:11:32;12.27;;;10.98;;
20185;SDS011;10252;48.792;8.582;2023-08-24T17:16:33;13.00;;;11.70;;
20185;SDS011;10252;48.792;8.582;2023-08-24T17:21:34;13.10;;;11.88;;
20185;SDS011;10252;48.792;8.582;2023-08-24T17:26:36;16.48;;;14.48;;
20185;SDS011;10252;48.792;8.582;2023-08-24T17:31:37;14.90;;;13.40;;
20185;SDS011;10252;48.792;8.582;2023-08-24T17:36:38;14.68;;;13.18;;
20185;SDS011;10252;48.792;8.582;2023-08-24T17:41:41;14.95;;;13.23;;
20185;SDS011;10252;48.792;8.582;2023-08-24T17:46:42;15.55;;;13.70;;
20185;SDS011;10252;48.792;8.582;2023-08-24T17:51:43;15.07;;;13.52;;
20185;SDS011;10252;48.792;8.582;2023-08-24T17:56:44;15.50;;;13.48;;
20185;SDS011;10252;48.792;8.582;2023-08-24T18:01:46;16.48;;;13.43;;
20185;SDS011;10252;48.792;8.582;2023-08-24T18:06:47;17.67;;;15.57;;
20185;SDS011;10252;48.792;8.582;2023-08-24T18:11:48;16.70;;;14.85;;
20185;SDS011;10252;48.792;8.582;2023-08-24T18:16:51;16.58;;;14.88;;
20185;SDS011;10252;48.792;8.582;2023-08-24T18:21:52;15.55;;;13.80;;
20185;SDS011;10252;48.792;8.582;2023-08-24T18:26:53;16.10;;;14.60;;
20185;SDS011;10252;48.792;8.582;2023-08-24T18:31:57;17.92;;;15.48;;
20185;SDS011;10252;48.792;8.582;2023-08-24T18:36:58;17.13;;;15.13;;
20185;SDS011;10252;48.792;8.582;2023-08-24T18:41:59;15.10;;;10.75;;
20185;SDS011;10252;48.792;8.582;2023-08-24T18:47:01;13.80;;;11.65;;
20185;SDS011;10252;48.792;8.582;2023-08-24T18:52:02;21.15;;;12.23;;
20185;SDS011;10252;48.792;8.582;2023-08-24T18:57:03;19.45;;;14.18;;
20185;SDS011;10252;48.792;8.582;2023-08-24T19:02:05;13.60;;;12.18;;
20185;SDS011;10252;48.792;8.582;2023-08-24T19:07:06;14.48;;;13.07;;
20185;SDS011;10252;48.792;8.582;2023-08-24T19:12:07;14.68;;;13.20;;
20185;SDS011;10252;48.792;8.582;2023-08-24T19:17:09;14.25;;;12.88;;
20185;SDS011;10252;48.792;8.582;2023-08-24T19:22:10;15.32;;;13.82;;
20185;SDS011;10252;48.792;8.582;2023-08-24T19:27:11;15.50;;;13.05;;
20185;SDS011;10252;48.792;8.582;2023-08-24T19:32:13;13.73;;;12.10;;
20185;SDS011;10252;48.792;8.582;2023-08-24T19:37:14;14.02;;;12.57;;
20185;SDS011;10252;48.792;8.582;2023-08-24T19:42:15;16.17;;;14.30;;
20185;SDS011;10252;48.792;8.582;2023-08-24T19:47:17;13.48;;;12.27;;
20185;SDS011;10252;48.792;8.582;2023-08-24T19:52:18;17.38;;;13.32;;
20185;SDS011;10252;48.792;8.582;2023-08-24T19:57:19;14.23;;;12.73;;
20185;SDS011;10252;48.792;8.582;2023-08-24T20:02:20;14.77;;;10.85;;
20185;SDS011;10252;48.792;8.582;2023-08-24T20:07:22;12.27;;;11.10;;
20185;SDS011;10252;48.792;8.582;2023-08-24T20:12:23;12.60;;;11.35;;
20185;SDS011;10252;48.792;8.582;2023-08-24T20:17:27;13.80;;;11.93;;
20185;SDS011;10252;48.792;8.582;2023-08-24T20:22:29;14.80;;;11.43;;
20185;SDS011;10252;48.792;8.582;2023-08-24T20:27:30;14.23;;;11.88;;
20185;SDS011;10252;48.792;8.582;2023-08-24T20:32:33;13.10;;;11.80;;
20185;SDS011;10252;48.792;8.582;2023-08-24T20:37:34;13.48;;;11.82;;
20185;SDS011;10252;48.792;8.582;2023-08-24T20:42:35;14.68;;;11.30;;
20185;SDS011;10252;48.792;8.582;2023-08-24T20:47:37;12.57;;;10.60;;
20185;SDS011;10252;48.792;8.582;2023-08-24T20:52:38;11.10;;;10.00;;
20185;SDS011;10252;48.792;8.582;2023-08-24T20:57:39;11.00;;;9.90;;
20185;SDS011;10252;48.792;8.582;2023-08-24T21:02:41;10.85;;;9.73;;
20185;SDS011;10252;48.792;8.582;2023-08-24T21:07:42;10.27;;;9.23;;
20185;SDS011;10252;48.792;8.582;2023-08-24T21:12:43;10.80;;;9.80;;
20185;SDS011;10252;48.792;8.582;2023-08-24T21:17:44;10.98;;;8.75;;
20185;SDS011;10252;48.792;8.582;2023-08-24T21:22:46;12.55;;;9.18;;
20185;SDS011;10252;48.792;8.582;2023-08-24T21:27:47;10.77;;;9.00;;
20185;SDS011;10252;48.792;8.582;2023-08-24T21:32:48;10.35;;;8.82;;
20185;SDS011;10252;48.792;8.582;2023-08-24T21:37:49;9.27;;;8.38;;
20185;SDS011;10252;48.792;8.582;2023-08-24T21:42:51;10.98;;;8.15;;
20185;SDS011;10252;48.792;8.582;2023-08-24T21:47:52;11.18;;;7.97;;
20185;SDS011;10252;48.792;8.582;2023-08-24T21:52:53;9.00;;;8.07;;
20185;SDS011;10252;48.792;8.582;2023-08-24T21:57:54;10.20;;;9.23;;
20185;SDS011;10252;48.792;8.582;2023-08-24T22:02:56;15.10;;;8.85;;
20185;SDS011;10252;48.792;8.582;2023-08-24T22:07:57;10.63;;;8.32;;
20185;SDS011;10252;48.792;8.582;2023-08-24T22:12:58;9.60;;;7.60;;
20185;SDS011;10252;48.792;8.582;2023-08-24T22:18:00;10.10;;;8.43;;
20185;SDS011;10252;48.792;8.582;2023-08-24T22:23:01;8.30;;;7.55;;
20185;SDS011;10252;48.792;8.582;2023-08-24T22:28:02;9.63;;;7.55;;
20185;SDS011;10252;48.792;8.582;2023-08-24T22:33:04;9.10;;;7.93;;
20185;SDS011;10252;48.792;8.582;2023-08-24T22:38:05;8.13;;;7.32;;
20185;SDS011;10252;48.792;8.582;2023-08-24T22:43:08;7.32;;;5.28;;
20185;SDS011;10252;48.792;8.582;2023-08-24T22:48:09;9.80;;;4.60;;
20185;SDS011;10252;48.792;8.582;2023-08-24T22:53:11;7.45;;;5.32;;
20185;SDS011;10252;48.792;8.582;2023-08-24T22:58:12;7.53;;;4.78;;
20185;SDS011;10252;48.792;8.582;2023-08-24T23:03:14;5.70;;;4.78;;
20185;SDS011;10252;48.792;8.582;2023-08-24T23:08:15;5.82;;;4.78;;
20185;SDS011;10252;48.792;8.582;2023-08-24T23:13:16;4.57;;;3.95;;
20185;SDS011;10252;48.792;8.582;2023-08-24T23:18:17;8.15;;;3.75;;
20185;SDS011;10252;48.792;8.582;2023-08-24T23:23:19;6.88;;;5.25;;
20185;SDS011;10252;48.792;8.582;2023-08-24T23:28:20;8.57;;;5.40;;
20185;SDS011;10252;48.792;8.582;2023-08-24T23:33:21;11.88;;;5.50;;
20185;SDS011;10252;48.792;8.582;2023-08-24T23:38:22;5.30;;;4.80;;
20185;SDS011;10252;48.792;8.582;2023-08-24T23:43:24;6.47;;;4.85;;
20185;SDS011;10252;48.792;8.582;2023-08-24T23:48:25;10.35;;;5.18;;
20185;SDS011;10252;48.792;8.582;2023-08-24T23:53:26;11.18;;;6.05;;
20185;SDS011;10252;48.792;8.582;2023-08-24T23:58:28;7.97;;;5.30;;
